Time;durP1;ratioP1;P1;durP2;ratioP2;P2;SDS_P1;SDS_P2;PMS_P1;PMS_P2;Temp;Humidity;BMP_temperature;BMP_pressure;BME280_temperature;BME280_humidity;BME280_pressure;Samples;Min_cycle;Max_cycle;Signal;HPM_P1;HPM_P2
2023/03/12 00:02:08;;;;;;;12.65;4.80;;;;;;;;;;5053648;28;20075;-73
2023/03/12 00:04:35;;;;;;;13.43;5.40;;;;;;;;;;5053798;28;20025;-74
2023/03/12 00:07:01;;;;;;;11.75;5.07;;;;;;;;;;5053958;28;20546;-74
2023/03/12 00:09:27;;;;;;;11.10;5.30;;;;;;;;;;5054152;28;20029;-73
2023/03/12 00:11:53;;;;;;;14.43;5.28;;;;;;;;;;5053811;28;20432;-74
2023/03/12 00:14:19;;;;;;;18.88;6.00;;;;;;;;;;5052509;28;20029;-73
2023/03/12 00:16:45;;;;;;;12.85;5.50;;;;;;;;;;5053582;28;20494;-73
2023/03/12 00:19:12;;;;;;;12.10;5.40;;;;;;;;;;5053871;28;20036;-75
2023/03/12 00:21:38;;;;;;;12.07;6.10;;;;;;;;;;5054074;28;20032;-74
2023/03/12 00:24:04;;;;;;;10.85;5.25;;;;;;;;;;5053820;28;20099;-74
2023/03/12 00:26:30;;;;;;;9.02;5.30;;;;;;;;;;5053907;28;20025;-73
2023/03/12 00:28:56;;;;;;;15.98;5.38;;;;;;;;;;5053738;28;20268;-73
2023/03/12 00:31:26;;;;;;;18.63;6.13;;;;;;;;;;5053636;28;20059;-72
2023/03/12 00:33:52;;;;;;;12.88;6.00;;;;;;;;;;5053233;28;20021;-74
2023/03/12 00:36:19;;;;;;;16.75;6.40;;;;;;;;;;5053776;28;20317;-73
2023/03/12 00:38:45;;;;;;;13.73;6.55;;;;;;;;;;5053282;28;20487;-73
2023/03/12 00:41:11;;;;;;;14.68;6.65;;;;;;;;;;5053203;28;20475;-72
2023/03/12 00:43:37;;;;;;;18.98;7.90;;;;;;;;;;5052705;28;20421;-73
2023/03/12 00:46:03;;;;;;;19.35;8.20;;;;;;;;;;5053157;28;20096;-72
2023/03/12 00:48:30;;;;;;;15.50;7.60;;;;;;;;;;5053084;28;20045;-72
2023/03/12 00:50:56;;;;;;;19.83;8.32;;;;;;;;;;5053086;28;20025;-72
2023/03/12 00:53:22;;;;;;;18.45;8.10;;;;;;;;;;5052859;28;20039;-74
2023/03/12 00:55:48;;;;;;;20.33;7.70;;;;;;;;;;5053108;28;20040;-73
2023/03/12 00:58:14;;;;;;;14.35;7.55;;;;;;;;;;5054339;28;20371;-75
2023/03/12 01:00:40;;;;;;;15.80;7.32;;;;;;;;;;5056134;28;20067;-73
2023/03/12 01:03:06;;;;;;;17.35;8.27;;;;;;;;;;5051554;28;20021;-74
2023/03/12 01:05:36;;;;;;;20.05;7.93;;;;;;;;;;5058097;28;20093;-75
2023/03/12 01:08:03;;;;;;;18.15;7.43;;;;;;;;;;5060260;28;20497;-74
2023/03/12 01:10:29;;;;;;;15.55;7.85;;;;;;;;;;5059703;28;20453;-74
2023/03/12 01:12:55;;;;;;;13.15;6.78;;;;;;;;;;5056544;28;20091;-73
2023/03/12 01:15:21;;;;;;;17.38;7.40;;;;;;;;;;5056474;28;20036;-73
2023/03/12 01:17:47;;;;;;;18.00;7.88;;;;;;;;;;5056609;28;20029;-74
2023/03/12 01:20:13;;;;;;;11.50;7.28;;;;;;;;;;5055908;28;20019;-72
2023/03/12 01:22:39;;;;;;;10.50;7.00;;;;;;;;;;5055083;28;20100;-73
2023/03/12 01:25:05;;;;;;;15.63;7.80;;;;;;;;;;5054934;28;20048;-73
2023/03/12 01:27:31;;;;;;;17.17;7.15;;;;;;;;;;5054492;28;20036;-73
2023/03/12 01:29:57;;;;;;;15.55;7.20;;;;;;;;;;5054796;28;20425;-74
2023/03/12 01:32:24;;;;;;;13.88;7.28;;;;;;;;;;5053727;28;20028;-72
2023/03/12 01:34:50;;;;;;;14.30;6.82;;;;;;;;;;5054076;28;20029;-73
2023/03/12 01:37:16;;;;;;;14.35;7.63;;;;;;;;;;5053881;28;20036;-74
2023/03/12 01:39:42;;;;;;;16.70;8.13;;;;;;;;;;5053765;28;20021;-73
2023/03/12 01:42:08;;;;;;;18.58;8.40;;;;;;;;;;5053837;28;20025;-73
2023/03/12 01:44:52;;;;;;;20.30;8.23;;;;;;;;;;5053243;28;20053;-74
2023/03/12 01:47:18;;;;;;;16.45;7.72;;;;;;;;;;5053308;28;20065;-73
2023/03/12 01:49:44;;;;;;;26.20;9.02;;;;;;;;;;5053212;28;20106;-73
2023/03/12 01:52:13;;;;;;;17.25;8.63;;;;;;;;;;5052704;28;20037;-74
2023/03/12 01:54:39;;;;;;;19.38;9.57;;;;;;;;;;5052930;28;20033;-72
2023/03/12 01:57:08;;;;;;;18.95;9.65;;;;;;;;;;5052651;28;20029;-72
2023/03/12 01:59:38;;;;;;;23.98;10.60;;;;;;;;;;5052742;28;20029;-73
2023/03/12 02:02:06;;;;;;;27.17;11.88;;;;;;;;;;5052350;28;20025;-71
2023/03/12 02:04:32;;;;;;;20.80;10.70;;;;;;;;;;5053325;28;20048;-73
2023/03/12 02:07:07;;;;;;;23.00;11.43;;;;;;;;;;5052406;28;20451;-72
2023/03/12 02:09:34;;;;;;;21.88;11.45;;;;;;;;;;5051740;28;20029;-72
2023/03/12 02:12:00;;;;;;;25.67;11.88;;;;;;;;;;5052088;28;20024;-73
2023/03/12 02:14:26;;;;;;;28.10;12.13;;;;;;;;;;5052451;28;20122;-72
2023/03/12 02:16:53;;;;;;;21.90;11.23;;;;;;;;;;5052323;28;20515;-73
2023/03/12 02:19:27;;;;;;;23.50;11.63;;;;;;;;;;5052427;28;20055;-73
2023/03/12 02:21:53;;;;;;;21.80;12.93;;;;;;;;;;5052088;28;20394;-73
2023/03/12 02:24:27;;;;;;;27.25;13.10;;;;;;;;;;5052434;28;20113;-73
2023/03/12 02:26:53;;;;;;;29.30;13.40;;;;;;;;;;5051154;28;20466;-74
2023/03/12 02:29:19;;;;;;;24.25;12.13;;;;;;;;;;5052032;28;20033;-73
2023/03/12 02:31:49;;;;;;;23.83;12.98;;;;;;;;;;5051896;28;20025;-74
2023/03/12 02:34:15;;;;;;;27.52;12.73;;;;;;;;;;5052140;28;20068;-74
2023/03/12 02:36:41;;;;;;;28.73;13.05;;;;;;;;;;5052153;28;20060;-73
2023/03/12 02:39:10;;;;;;;23.30;11.73;;;;;;;;;;5051992;28;20086;-73
2023/03/12 02:41:39;;;;;;;26.25;11.82;;;;;;;;;;5052314;28;20108;-73
2023/03/12 02:44:08;;;;;;;26.45;10.82;;;;;;;;;;5051770;28;20276;-74
2023/03/12 02:46:36;;;;;;;24.63;11.70;;;;;;;;;;5051883;28;20070;-73
2023/03/12 02:49:02;;;;;;;21.20;11.55;;;;;;;;;;5051914;28;20054;-73
2023/03/12 02:51:28;;;;;;;29.67;12.65;;;;;;;;;;5052030;28;20102;-73
2023/03/12 02:53:54;;;;;;;27.27;12.70;;;;;;;;;;5051540;28;20033;-73
2023/03/12 02:56:27;;;;;;;26.77;13.63;;;;;;;;;;5051696;28;20033;-72
2023/03/12 02:58:53;;;;;;;27.50;13.43;;;;;;;;;;5052347;28;20408;-74
2023/03/12 03:01:20;;;;;;;28.35;12.80;;;;;;;;;;5051829;28;20145;-73
2023/03/12 03:03:46;;;;;;;27.35;12.77;;;;;;;;;;5051640;28;20036;-73
2023/03/12 03:06:12;;;;;;;25.60;13.05;;;;;;;;;;5052718;28;20024;-72
2023/03/12 03:08:38;;;;;;;28.23;12.00;;;;;;;;;;5051683;28;20495;-73
2023/03/12 03:11:05;;;;;;;23.63;12.07;;;;;;;;;;5051822;28;20061;-73
2023/03/12 03:13:31;;;;;;;25.40;11.55;;;;;;;;;;5051433;28;20074;-73
2023/03/12 03:15:58;;;;;;;25.60;12.13;;;;;;;;;;5051534;28;20548;-73
2023/03/12 03:18:25;;;;;;;23.15;11.40;;;;;;;;;;5051695;28;20124;-73
2023/03/12 03:21:02;;;;;;;19.83;11.23;;;;;;;;;;5053614;28;20029;-74
2023/03/12 03:23:28;;;;;;;32.90;12.25;;;;;;;;;;5051224;28;20255;-76
2023/03/12 03:25:55;;;;;;;27.35;11.40;;;;;;;;;;5051835;28;20106;-75
2023/03/12 03:28:23;;;;;;;23.52;10.90;;;;;;;;;;5051358;28;20091;-75
2023/03/12 03:30:49;;;;;;;21.88;11.82;;;;;;;;;;5054908;28;20025;-76
2023/03/12 03:33:15;;;;;;;21.20;10.82;;;;;;;;;;5049436;28;20075;-77
2023/03/12 03:35:41;;;;;;;27.85;10.57;;;;;;;;;;5052977;28;20029;-77
2023/03/12 03:38:07;;;;;;;20.35;10.95;;;;;;;;;;5051550;28;20028;-77
2023/03/12 03:40:33;;;;;;;19.67;10.45;;;;;;;;;;5055717;28;20046;-77
2023/03/12 03:42:59;;;;;;;21.83;11.57;;;;;;;;;;5051568;28;20017;-77
2023/03/12 03:45:25;;;;;;;20.63;11.18;;;;;;;;;;5056141;28;20033;-78
2023/03/12 03:47:51;;;;;;;21.85;11.27;;;;;;;;;;5050199;28;20030;-77
2023/03/12 03:50:17;;;;;;;18.25;10.80;;;;;;;;;;5051214;28;20021;-76
2023/03/12 03:52:43;;;;;;;20.83;11.68;;;;;;;;;;5052973;28;20064;-75
2023/03/12 03:55:09;;;;;;;19.95;11.10;;;;;;;;;;5051681;28;20526;-76
2023/03/12 03:57:35;;;;;;;24.25;11.57;;;;;;;;;;5052284;28;20026;-76
2023/03/12 04:00:01;;;;;;;26.55;11.68;;;;;;;;;;5052262;28;20104;-76
2023/03/12 04:02:27;;;;;;;20.45;11.32;;;;;;;;;;5053762;28;20017;-76
2023/03/12 04:04:56;;;;;;;18.75;10.68;;;;;;;;;;5052715;28;20386;-76
2023/03/12 04:07:22;;;;;;;25.30;12.77;;;;;;;;;;5052247;28;20025;-75
2023/03/12 04:09:48;;;;;;;27.98;12.13;;;;;;;;;;5052409;28;20082;-75
2023/03/12 04:12:14;;;;;;;22.42;11.82;;;;;;;;;;5053887;28;20056;-76
2023/03/12 04:14:41;;;;;;;19.45;10.85;;;;;;;;;;5053085;28;20040;-75
2023/03/12 04:17:07;;;;;;;20.83;11.07;;;;;;;;;;5054391;28;20028;-76
2023/03/12 04:19:33;;;;;;;24.60;12.98;;;;;;;;;;5053186;28;20486;-75
2023/03/12 04:21:59;;;;;;;25.65;11.40;;;;;;;;;;5054044;28;20028;-74
2023/03/12 04:24:25;;;;;;;20.08;11.18;;;;;;;;;;5054434;28;20025;-73
2023/03/12 04:26:51;;;;;;;27.30;11.70;;;;;;;;;;5054651;28;20383;-73
2023/03/12 04:29:18;;;;;;;29.02;11.60;;;;;;;;;;5054615;28;20025;-74
2023/03/12 04:31:44;;;;;;;22.52;11.82;;;;;;;;;;5053868;28;20031;-73
2023/03/12 04:34:11;;;;;;;24.90;10.98;;;;;;;;;;5063045;28;20036;-72
2023/03/12 04:36:37;;;;;;;23.10;10.82;;;;;;;;;;5061604;28;20554;-72
2023/03/12 04:39:06;;;;;;;23.45;11.93;;;;;;;;;;5060210;28;20053;-72
2023/03/12 04:41:32;;;;;;;19.70;10.90;;;;;;;;;;5055112;28;20017;-72
2023/03/12 04:43:58;;;;;;;25.02;11.98;;;;;;;;;;5054438;28;20036;-71
2023/03/12 04:46:24;;;;;;;23.73;11.05;;;;;;;;;;5054588;28;20025;-72
2023/03/12 04:48:50;;;;;;;27.50;11.35;;;;;;;;;;5054462;28;20406;-72
2023/03/12 04:51:16;;;;;;;25.60;11.88;;;;;;;;;;5054689;28;20025;-71
2023/03/12 04:53:43;;;;;;;25.15;10.93;;;;;;;;;;5052694;28;20039;-72
2023/03/12 04:56:09;;;;;;;23.70;10.80;;;;;;;;;;5054294;28;20021;-72
2023/03/12 04:58:35;;;;;;;31.33;11.77;;;;;;;;;;5054599;28;20040;-72
2023/03/12 05:01:01;;;;;;;18.80;10.43;;;;;;;;;;5054953;28;20029;-71
2023/03/12 05:03:27;;;;;;;24.60;11.43;;;;;;;;;;5054638;28;20029;-73
2023/03/12 05:05:53;;;;;;;20.50;10.07;;;;;;;;;;5054714;28;20051;-72
2023/03/12 05:08:19;;;;;;;24.17;11.88;;;;;;;;;;5054390;28;20044;-74
2023/03/12 05:10:46;;;;;;;21.90;11.07;;;;;;;;;;5050442;28;20035;-74
2023/03/12 05:13:19;;;;;;;24.52;11.20;;;;;;;;;;5054948;28;20024;-73
2023/03/12 05:15:46;;;;;;;21.73;11.17;;;;;;;;;;5055019;28;20029;-74
2023/03/12 05:18:13;;;;;;;18.20;10.60;;;;;;;;;;5051726;28;20079;-73
2023/03/12 05:20:39;;;;;;;17.55;10.38;;;;;;;;;;5053789;28;20575;-73
2023/03/12 05:23:05;;;;;;;28.17;11.23;;;;;;;;;;5050973;28;20100;-74
2023/03/12 05:25:31;;;;;;;21.77;10.00;;;;;;;;;;5053364;28;20368;-74
2023/03/12 05:27:57;;;;;;;27.33;10.45;;;;;;;;;;5053485;28;20033;-74
2023/03/12 05:30:23;;;;;;;21.45;10.43;;;;;;;;;;5053067;28;20029;-74
2023/03/12 05:32:49;;;;;;;20.90;10.82;;;;;;;;;;5048904;28;20441;-72
2023/03/12 05:35:15;;;;;;;19.80;11.98;;;;;;;;;;5053161;28;20032;-72
2023/03/12 05:37:41;;;;;;;20.85;10.45;;;;;;;;;;5053143;28;20044;-73
2023/03/12 05:40:10;;;;;;;22.95;10.52;;;;;;;;;;5053146;28;20379;-72
2023/03/12 05:42:36;;;;;;;19.48;10.43;;;;;;;;;;5052981;28;20510;-72
2023/03/12 05:45:03;;;;;;;22.30;9.75;;;;;;;;;;5053694;28;20037;-72
2023/03/12 05:47:29;;;;;;;22.48;10.43;;;;;;;;;;5053055;28;20048;-72
2023/03/12 05:49:55;;;;;;;18.35;9.90;;;;;;;;;;5053707;28;20082;-75
2023/03/12 05:52:21;;;;;;;20.98;10.90;;;;;;;;;;5053795;28;20072;-73
2023/03/12 05:54:47;;;;;;;20.75;10.57;;;;;;;;;;5053641;28;20025;-72
2023/03/12 05:57:13;;;;;;;22.33;11.25;;;;;;;;;;5053649;28;20036;-72
2023/03/12 05:59:39;;;;;;;19.48;9.82;;;;;;;;;;5053652;28;20063;-72
2023/03/12 06:02:05;;;;;;;21.02;10.35;;;;;;;;;;5053505;28;20091;-73
2023/03/12 06:04:31;;;;;;;25.30;10.95;;;;;;;;;;5054577;28;20035;-74
2023/03/12 06:06:57;;;;;;;23.52;10.98;;;;;;;;;;5052805;28;20049;-71
2023/03/12 06:09:23;;;;;;;19.17;10.40;;;;;;;;;;5052916;28;20106;-72
2023/03/12 06:11:49;;;;;;;24.42;10.27;;;;;;;;;;5053102;28;20033;-73
2023/03/12 06:14:15;;;;;;;24.60;10.25;;;;;;;;;;5051869;28;20108;-73
2023/03/12 06:16:41;;;;;;;22.40;10.70;;;;;;;;;;5054530;28;20028;-74
2023/03/12 06:19:07;;;;;;;23.70;10.57;;;;;;;;;;5054612;28;20128;-72
2023/03/12 06:21:34;;;;;;;23.17;11.20;;;;;;;;;;5054627;28;20549;-73
2023/03/12 06:24:00;;;;;;;20.02;9.73;;;;;;;;;;5052908;28;20027;-74
2023/03/12 06:26:26;;;;;;;19.92;9.82;;;;;;;;;;5053024;28;20021;-73
2023/03/12 06:28:53;;;;;;;26.50;9.30;;;;;;;;;;5052916;28;20032;-73
2023/03/12 06:31:19;;;;;;;31.17;8.82;;;;;;;;;;5046661;28;20056;-72
2023/03/12 06:33:45;;;;;;;25.65;9.13;;;;;;;;;;5051023;28;20076;-71
2023/03/12 06:36:12;;;;;;;18.50;8.73;;;;;;;;;;5053037;28;20048;-75
2023/03/12 06:38:38;;;;;;;25.67;9.55;;;;;;;;;;5052006;28;20552;-72
2023/03/12 06:41:05;;;;;;;20.38;9.25;;;;;;;;;;5052781;28;20064;-74
2023/03/12 06:43:32;;;;;;;23.48;9.27;;;;;;;;;;5052524;28;20085;-73
2023/03/12 06:45:59;;;;;;;22.02;8.52;;;;;;;;;;5050090;28;21447;-71
2023/03/12 06:48:25;;;;;;;22.10;8.57;;;;;;;;;;5052540;28;20065;-72
2023/03/12 06:50:52;;;;;;;21.30;9.10;;;;;;;;;;5047194;28;20101;-76
2023/03/12 06:53:19;;;;;;;17.88;8.95;;;;;;;;;;5053939;28;20206;-71
2023/03/12 06:55:45;;;;;;;32.58;10.25;;;;;;;;;;5052171;28;20037;-72
2023/03/12 06:58:11;;;;;;;19.10;9.43;;;;;;;;;;5054721;28;20466;-72
2023/03/12 07:00:37;;;;;;;21.73;8.85;;;;;;;;;;5056143;28;20025;-73
2023/03/12 07:03:03;;;;;;;21.13;9.35;;;;;;;;;;5056134;28;20037;-73
2023/03/12 07:05:29;;;;;;;22.60;10.35;;;;;;;;;;5055328;28;20064;-76
2023/03/12 07:07:55;;;;;;;23.58;10.13;;;;;;;;;;5054927;28;20021;-72
2023/03/12 07:10:21;;;;;;;22.00;9.20;;;;;;;;;;5056209;28;20040;-73
2023/03/12 07:12:47;;;;;;;26.42;9.98;;;;;;;;;;5053420;28;20052;-71
2023/03/12 07:15:13;;;;;;;25.77;9.95;;;;;;;;;;5052714;28;20024;-72
2023/03/12 07:17:39;;;;;;;29.90;12.30;;;;;;;;;;5054833;28;20060;-71
2023/03/12 07:20:06;;;;;;;45.33;17.77;;;;;;;;;;5055453;28;20048;-71
2023/03/12 07:22:32;;;;;;;29.73;12.23;;;;;;;;;;5052993;28;20063;-73
2023/03/12 07:24:58;;;;;;;28.80;10.88;;;;;;;;;;5054477;28;20095;-72
2023/03/12 07:27:24;;;;;;;24.67;9.98;;;;;;;;;;5053404;28;20052;-72
2023/03/12 07:29:51;;;;;;;20.48;10.05;;;;;;;;;;5052944;28;20544;-73
2023/03/12 07:32:17;;;;;;;28.48;10.27;;;;;;;;;;5052033;28;20033;-72
2023/03/12 07:34:43;;;;;;;24.40;10.02;;;;;;;;;;5053678;28;20112;-76
2023/03/12 07:37:09;;;;;;;19.98;10.40;;;;;;;;;;5052766;28;20033;-71
2023/03/12 07:39:35;;;;;;;29.42;13.98;;;;;;;;;;5052963;28;20025;-73
2023/03/12 07:42:01;;;;;;;19.70;10.70;;;;;;;;;;5057087;28;20033;-73
2023/03/12 07:44:27;;;;;;;34.63;11.38;;;;;;;;;;5055842;28;20298;-70
2023/03/12 07:46:53;;;;;;;22.90;10.38;;;;;;;;;;5058123;28;20092;-71
2023/03/12 07:49:19;;;;;;;28.73;10.80;;;;;;;;;;5055422;28;20029;-70
2023/03/12 07:51:45;;;;;;;25.20;9.98;;;;;;;;;;5051765;28;20525;-73
2023/03/12 07:54:11;;;;;;;15.35;8.95;;;;;;;;;;5051405;28;20482;-72
2023/03/12 07:56:37;;;;;;;25.35;9.20;;;;;;;;;;5051249;28;20033;-73
2023/03/12 07:59:03;;;;;;;26.25;9.55;;;;;;;;;;5051577;28;20075;-72
2023/03/12 08:01:31;;;;;;;30.92;9.85;;;;;;;;;;5051429;28;20025;-72
2023/03/12 08:04:00;;;;;;;19.17;8.98;;;;;;;;;;5052156;28;20021;-72
2023/03/12 08:06:26;;;;;;;30.95;9.07;;;;;;;;;;5051589;28;20486;-72
2023/03/12 08:08:53;;;;;;;25.92;9.15;;;;;;;;;;5054420;28;20149;-71
2023/03/12 08:11:19;;;;;;;21.02;8.43;;;;;;;;;;5055238;28;20063;-74
2023/03/12 08:13:45;;;;;;;15.90;8.05;;;;;;;;;;5056103;28;20031;-72
2023/03/12 08:16:11;;;;;;;25.85;9.35;;;;;;;;;;5055477;28;20435;-72
2023/03/12 08:18:37;;;;;;;23.58;8.48;;;;;;;;;;5055625;28;20027;-72
2023/03/12 08:21:03;;;;;;;17.92;8.88;;;;;;;;;;5051757;28;20048;-70
2023/03/12 08:23:29;;;;;;;26.42;9.05;;;;;;;;;;5048035;28;20036;-71
2023/03/12 08:25:55;;;;;;;22.05;7.72;;;;;;;;;;5054801;28;20021;-71
2023/03/12 08:28:23;;;;;;;20.35;8.00;;;;;;;;;;5050579;28;20021;-71
2023/03/12 08:30:50;;;;;;;17.33;7.05;;;;;;;;;;5058378;28;20025;-72
2023/03/12 08:33:16;;;;;;;22.30;7.60;;;;;;;;;;5048960;28;20079;-72
2023/03/12 08:35:42;;;;;;;22.33;7.78;;;;;;;;;;5054556;28;20086;-73
2023/03/12 08:38:08;;;;;;;17.17;6.65;;;;;;;;;;5051512;28;20444;-71
2023/03/12 08:40:34;;;;;;;15.68;6.60;;;;;;;;;;5051638;28;20025;-71
2023/03/12 08:43:00;;;;;;;21.00;7.22;;;;;;;;;;5051917;28;20013;-73
2023/03/12 08:45:26;;;;;;;19.55;7.53;;;;;;;;;;5052097;28;20397;-73
2023/03/12 08:47:52;;;;;;;22.35;7.53;;;;;;;;;;5053093;28;20028;-72
2023/03/12 08:50:21;;;;;;;23.92;7.55;;;;;;;;;;5052382;28;20040;-72
2023/03/12 08:52:47;;;;;;;14.90;6.47;;;;;;;;;;5051956;28;20009;-72
2023/03/12 08:55:13;;;;;;;13.10;6.47;;;;;;;;;;5052487;28;20033;-72
2023/03/12 08:57:39;;;;;;;14.30;6.20;;;;;;;;;;5055694;28;20064;-72
2023/03/12 09:00:10;;;;;;;14.05;5.65;;;;;;;;;;5056723;28;20597;-73
2023/03/12 09:02:36;;;;;;;20.17;6.32;;;;;;;;;;5055028;28;20036;-73
2023/03/12 09:05:02;;;;;;;14.98;4.88;;;;;;;;;;5055593;28;20120;-73
2023/03/12 09:07:28;;;;;;;20.80;5.65;;;;;;;;;;5055855;28;20094;-71
2023/03/12 09:09:54;;;;;;;14.20;5.03;;;;;;;;;;5053808;28;20031;-72
2023/03/12 09:12:20;;;;;;;16.92;6.13;;;;;;;;;;5053616;28;20163;-73
2023/03/12 09:14:46;;;;;;;17.27;5.07;;;;;;;;;;5054271;28;20021;-72
2023/03/12 09:17:12;;;;;;;11.15;4.93;;;;;;;;;;5053918;28;20094;-72
2023/03/12 09:19:39;;;;;;;20.63;5.18;;;;;;;;;;5054412;28;20021;-74
2023/03/12 09:22:05;;;;;;;19.13;4.60;;;;;;;;;;5053996;28;20421;-72
2023/03/12 09:24:31;;;;;;;15.38;4.88;;;;;;;;;;5053327;28;20032;-73
2023/03/12 09:26:57;;;;;;;11.55;4.65;;;;;;;;;;5053496;28;20032;-73
2023/03/12 09:29:23;;;;;;;14.30;4.78;;;;;;;;;;5053292;28;20036;-72
2023/03/12 09:31:49;;;;;;;24.40;5.25;;;;;;;;;;5052818;28;20028;-71
2023/03/12 09:34:16;;;;;;;13.88;5.10;;;;;;;;;;5053344;28;20032;-72
2023/03/12 09:36:41;;;;;;;11.60;4.85;;;;;;;;;;5053067;28;20039;-74
2023/03/12 09:39:07;;;;;;;13.05;4.93;;;;;;;;;;5053419;28;20100;-73
2023/03/12 09:41:37;;;;;;;13.02;4.72;;;;;;;;;;5053209;28;20466;-72
2023/03/12 09:44:15;;;;;;;17.25;4.70;;;;;;;;;;5052660;28;20454;-74
2023/03/12 09:46:45;;;;;;;16.58;4.75;;;;;;;;;;5053086;28;20024;-75
2023/03/12 09:49:16;;;;;;;13.98;4.68;;;;;;;;;;5052944;28;20090;-75
2023/03/12 09:51:44;;;;;;;11.43;4.18;;;;;;;;;;5052725;28;20033;-74
2023/03/12 09:54:23;;;;;;;15.52;5.00;;;;;;;;;;5052750;28;20037;-74
2023/03/12 09:56:50;;;;;;;13.25;5.20;;;;;;;;;;5052653;28;20414;-76
2023/03/12 09:59:16;;;;;;;13.23;5.00;;;;;;;;;;5052893;28;20104;-72
2023/03/12 10:01:56;;;;;;;19.13;5.03;;;;;;;;;;5052747;28;20052;-74
2023/03/12 10:04:33;;;;;;;13.35;4.60;;;;;;;;;;5052703;28;20032;-74
2023/03/12 10:07:13;;;;;;;12.48;5.00;;;;;;;;;;5052985;28;20036;-74
2023/03/12 10:09:39;;;;;;;14.52;5.20;;;;;;;;;;5053041;28;20024;-74
2023/03/12 10:12:05;;;;;;;17.85;5.80;;;;;;;;;;5053170;28;20143;-72
2023/03/12 10:14:50;;;;;;;19.65;5.38;;;;;;;;;;5053698;28;20025;-73
2023/03/12 10:17:25;;;;;;;18.92;5.07;;;;;;;;;;5052605;28;20025;-73
2023/03/12 10:20:10;;;;;;;16.67;4.80;;;;;;;;;;5052813;28;20506;-72
2023/03/12 10:22:36;;;;;;;;;;;;;;;;;;5052788;28;20036;-71
2023/03/12 10:25:16;;;;;;;24.20;4.72;;;;;;;;;;5052319;28;19904;-73
2023/03/12 10:27:43;;;;;;;12.80;5.10;;;;;;;;;;5043529;28;20030;-72
2023/03/12 10:30:17;;;;;;;19.33;4.60;;;;;;;;;;5040717;28;20021;-72
2023/03/12 10:32:46;;;;;;;18.23;4.82;;;;;;;;;;5043442;28;20083;-72
2023/03/12 10:35:20;;;;;;;19.52;4.80;;;;;;;;;;5042759;28;20032;-73
2023/03/12 10:37:48;;;;;;;17.08;4.78;;;;;;;;;;5037398;28;20036;-72
2023/03/12 10:40:15;;;;;;;17.10;4.47;;;;;;;;;;5048664;28;20063;-74
2023/03/12 10:42:42;;;;;;;12.50;4.55;;;;;;;;;;5053170;28;20474;-75
2023/03/12 10:45:27;;;;;;;14.35;4.88;;;;;;;;;;5053236;28;20049;-74
2023/03/12 10:47:58;;;;;;;12.00;4.47;;;;;;;;;;5054142;28;20024;-74
2023/03/12 10:50:25;;;;;;;21.15;5.30;;;;;;;;;;5046578;28;20029;-73
2023/03/12 10:52:53;;;;;;;16.80;4.88;;;;;;;;;;5043691;28;20063;-74
2023/03/12 10:55:25;;;;;;;17.23;4.90;;;;;;;;;;5052055;28;20502;-72
2023/03/12 10:57:51;;;;;;;17.50;4.78;;;;;;;;;;5053953;28;20018;-73
2023/03/12 11:00:22;;;;;;;17.00;4.75;;;;;;;;;;5052230;28;20028;-72
2023/03/12 11:02:57;;;;;;;16.60;5.43;;;;;;;;;;5051433;28;20017;-73
2023/03/12 11:05:28;;;;;;;20.33;5.38;;;;;;;;;;5051616;28;20024;-72
2023/03/12 11:07:55;;;;;;;18.00;6.00;;;;;;;;;;5051944;28;20021;-75
2023/03/12 11:10:23;;;;;;;18.58;5.93;;;;;;;;;;5050612;28;20036;-73
2023/03/12 11:13:20;;;;;;;16.60;5.30;;;;;;;;;;5051868;28;20025;-72
2023/03/12 11:15:46;;;;;;;21.90;8.25;;;;;;;;;;5052893;28;20032;-72
2023/03/12 11:18:20;;;;;;;19.33;5.70;;;;;;;;;;5052609;28;20028;-76
2023/03/12 11:20:47;;;;;;;13.27;5.45;;;;;;;;;;5052590;28;20092;-73
2023/03/12 11:23:17;;;;;;;23.00;6.05;;;;;;;;;;5049064;28;20062;-73
2023/03/12 11:25:43;;;;;;;16.20;5.10;;;;;;;;;;5042244;28;20017;-74
2023/03/12 11:28:17;;;;;;;13.13;5.35;;;;;;;;;;5052766;28;20029;-73
2023/03/12 11:30:43;;;;;;;16.35;5.15;;;;;;;;;;5050402;28;20486;-73
2023/03/12 11:33:11;;;;;;;17.35;4.82;;;;;;;;;;5048690;28;20032;-73
2023/03/12 11:35:49;;;;;;;17.55;5.05;;;;;;;;;;5050223;28;20079;-75
2023/03/12 11:38:24;;;;;;;16.17;4.97;;;;;;;;;;5047212;28;20017;-73
2023/03/12 11:41:05;;;;;;;15.02;5.07;;;;;;;;;;5043759;28;20028;-74
2023/03/12 11:43:50;;;;;;;22.98;5.32;;;;;;;;;;5047745;28;20831;-74
2023/03/12 11:46:37;;;;;;;15.20;4.18;;;;;;;;;;5055807;28;20029;-73
2023/03/12 11:49:22;;;;;;;12.65;4.75;;;;;;;;;;5049465;28;20018;-72
2023/03/12 11:52:23;;;;;;;11.98;4.88;;;;;;;;;;5051320;28;20026;-73
2023/03/12 11:55:08;;;;;;;13.93;4.85;;;;;;;;;;5051582;28;20473;-73
2023/03/12 11:57:34;;;;;;;19.33;4.70;;;;;;;;;;5050122;28;20044;-73
2023/03/12 12:00:13;;;;;;;15.38;4.63;;;;;;;;;;5050149;28;20031;-74
2023/03/12 12:02:58;;;;;;;16.00;4.63;;;;;;;;;;5049887;28;20032;-74
2023/03/12 12:05:32;;;;;;;12.20;4.53;;;;;;;;;;5053051;28;20056;-75
2023/03/12 12:08:11;;;;;;;16.38;5.40;;;;;;;;;;5055807;28;20082;-73
2023/03/12 12:10:55;;;;;;;15.77;4.68;;;;;;;;;;5056026;28;20420;-75
2023/03/12 12:13:27;;;;;;;15.48;4.53;;;;;;;;;;5054843;28;20021;-73
2023/03/12 12:16:02;;;;;;;17.92;4.63;;;;;;;;;;5051328;28;20052;-73
2023/03/12 12:18:31;;;;;;;14.73;4.35;;;;;;;;;;5053069;28;20044;-74
2023/03/12 12:21:02;;;;;;;14.98;4.65;;;;;;;;;;5052394;28;20378;-74
2023/03/12 12:23:31;;;;;;;12.82;4.38;;;;;;;;;;5049739;28;20057;-73
2023/03/12 12:26:06;;;;;;;12.43;4.88;;;;;;;;;;5051310;28;20028;-72
2023/03/12 12:28:52;;;;;;;14.50;4.60;;;;;;;;;;5048420;28;20028;-74
2023/03/12 12:31:21;;;;;;;15.18;4.57;;;;;;;;;;5048261;28;20025;-74
2023/03/12 12:33:49;;;;;;;16.80;4.00;;;;;;;;;;5050091;28;20040;-74
2023/03/12 12:36:15;;;;;;;14.02;4.28;;;;;;;;;;5049558;28;20052;-73
2023/03/12 12:39:03;;;;;;;13.98;4.60;;;;;;;;;;5049935;28;20143;-72
2023/03/12 12:41:31;;;;;;;17.92;5.68;;;;;;;;;;5053812;28;20021;-74
2023/03/12 12:44:00;;;;;;;13.15;4.30;;;;;;;;;;5051081;28;20061;-73
2023/03/12 12:46:29;;;;;;;16.05;3.88;;;;;;;;;;5049492;28;20090;-72
2023/03/12 12:48:58;;;;;;;16.02;4.95;;;;;;;;;;5047484;28;20102;-72
2023/03/12 12:51:26;;;;;;;8.55;4.20;;;;;;;;;;5047303;28;20029;-73
2023/03/12 12:53:55;;;;;;;11.50;3.95;;;;;;;;;;5050476;28;20033;-74
2023/03/12 12:56:25;;;;;;;13.82;4.82;;;;;;;;;;5050154;28;20047;-73
2023/03/12 12:59:04;;;;;;;9.00;3.22;;;;;;;;;;5043240;28;20049;-73
2023/03/12 13:01:32;;;;;;;12.68;3.83;;;;;;;;;;5045483;28;20025;-73
2023/03/12 13:04:04;;;;;;;8.60;3.03;;;;;;;;;;5034731;28;20033;-74
2023/03/12 13:06:50;;;;;;;17.40;5.28;;;;;;;;;;5034826;28;20495;-73
2023/03/12 13:09:16;;;;;;;9.15;3.35;;;;;;;;;;5054079;28;20382;-73
2023/03/12 13:11:46;;;;;;;11.40;3.40;;;;;;;;;;5054073;28;20025;-73
2023/03/12 13:14:19;;;;;;;10.70;4.00;;;;;;;;;;5053667;28;20025;-73
2023/03/12 13:16:46;;;;;;;9.35;3.17;;;;;;;;;;5053789;28;20025;-74
2023/03/12 13:19:15;;;;;;;14.30;3.33;;;;;;;;;;5053832;28;20037;-73
2023/03/12 13:21:44;;;;;;;12.13;3.40;;;;;;;;;;5054149;28;20533;-75
2023/03/12 13:24:24;;;;;;;10.38;3.28;;;;;;;;;;5054844;28;20037;-74
2023/03/12 13:27:02;;;;;;;16.73;6.10;;;;;;;;;;5054666;28;20025;-73
2023/03/12 13:29:28;;;;;;;12.57;3.90;;;;;;;;;;5056599;28;20056;-73
2023/03/12 13:31:54;;;;;;;14.80;3.67;;;;;;;;;;5055433;28;20025;-73
2023/03/12 13:34:20;;;;;;;16.65;4.15;;;;;;;;;;5057380;28;20032;-76
2023/03/12 13:36:47;;;;;;;8.80;3.33;;;;;;;;;;5056581;28;20028;-76
2023/03/12 13:39:16;;;;;;;10.20;3.58;;;;;;;;;;5056166;28;20109;-73
2023/03/12 13:41:45;;;;;;;9.38;3.30;;;;;;;;;;5055135;28;20035;-73
2023/03/12 13:44:30;;;;;;;10.15;3.08;;;;;;;;;;5053790;28;20490;-76
2023/03/12 13:47:04;;;;;;;17.40;3.58;;;;;;;;;;5054325;28;20387;-71
2023/03/12 13:49:36;;;;;;;18.70;3.70;;;;;;;;;;5054387;28;20029;-73
2023/03/12 13:52:09;;;;;;;10.63;3.05;;;;;;;;;;5049271;28;20132;-73
2023/03/12 13:54:40;;;;;;;12.02;3.28;;;;;;;;;;5049946;28;20079;-72
2023/03/12 13:57:10;;;;;;;16.02;3.30;;;;;;;;;;5051536;28;20056;-71
2023/03/12 13:59:42;;;;;;;13.65;3.35;;;;;;;;;;5048195;28;20021;-73
2023/03/12 14:02:14;;;;;;;10.77;3.45;;;;;;;;;;5054934;28;20052;-72
2023/03/12 14:04:41;;;;;;;10.07;3.40;;;;;;;;;;5050045;28;20104;-71
2023/03/12 14:07:26;;;;;;;11.98;3.08;;;;;;;;;;5050605;28;20466;-73
2023/03/12 14:09:52;;;;;;;14.70;3.60;;;;;;;;;;5045058;28;20474;-74
2023/03/12 14:12:31;;;;;;;10.52;2.90;;;;;;;;;;5054152;28;20028;-72
2023/03/12 14:15:15;;;;;;;12.45;3.40;;;;;;;;;;5046063;28;20032;-73
2023/03/12 14:17:42;;;;;;;9.35;3.25;;;;;;;;;;5052241;28;20041;-73
2023/03/12 14:20:11;;;;;;;15.65;4.22;;;;;;;;;;5050728;28;20028;-73
2023/03/12 14:22:38;;;;;;;8.93;3.45;;;;;;;;;;5055802;28;20030;-71
2023/03/12 14:25:12;;;;;;;16.63;3.38;;;;;;;;;;5054792;28;20020;-72
2023/03/12 14:27:39;;;;;;;10.07;3.60;;;;;;;;;;5052331;28;20026;-73
2023/03/12 14:30:25;;;;;;;13.13;3.63;;;;;;;;;;5052436;28;20037;-74
2023/03/12 14:32:54;;;;;;;9.23;3.15;;;;;;;;;;5046846;28;20029;-72
2023/03/12 14:35:26;;;;;;;12.80;3.55;;;;;;;;;;5051374;28;20043;-71